createdAt,value
2022-09-30T00:01:59.206Z,8.17
2022-09-30T00:07:00.842Z,8.19
2022-09-30T00:12:02.486Z,8.12
2022-09-30T00:17:04.021Z,8.06
2022-09-30T00:22:05.584Z,8.01
2022-09-30T00:27:07.177Z,8.30
2022-09-30T00:32:08.688Z,8.17
2022-09-30T00:37:11.704Z,8.02
2022-09-30T00:42:15.158Z,8.03
2022-09-30T00:47:45.900Z,8.14
2022-09-30T00:53:11.516Z,8.07
2022-09-30T00:58:20.525Z,8.22
2022-09-30T01:03:23.122Z,8.21
2022-09-30T01:08:25.733Z,7.99
2022-09-30T01:13:29.147Z,8.17
2022-09-30T01:18:59.616Z,8.40
2022-09-30T01:24:25.811Z,8.05
2022-09-30T01:30:01.340Z,7.91
2022-09-30T01:35:28.015Z,7.88
2022-09-30T01:40:59.469Z,7.92
2022-09-30T01:46:10.404Z,7.89
2022-09-30T01:51:35.374Z,7.84
2022-09-30T01:56:46.475Z,8.06
2022-09-30T02:01:54.372Z,7.78
2022-09-30T02:07:00.749Z,7.65
2022-09-30T02:12:07.268Z,7.61
2022-09-30T02:17:16.859Z,7.61
2022-09-30T02:22:21.872Z,7.65
2022-09-30T02:27:29.916Z,7.62
2022-09-30T02:32:49.299Z,7.58
2022-09-30T02:37:56.105Z,7.90
2022-09-30T02:42:57.954Z,7.82
2022-09-30T02:48:35.625Z,7.94
2022-09-30T02:53:47.191Z,7.94
2022-09-30T02:58:51.475Z,7.88
2022-09-30T03:04:00.105Z,7.62
2022-09-30T03:09:02.338Z,7.44
2022-09-30T03:14:24.251Z,7.43
2022-09-30T03:19:53.669Z,7.42
2022-09-30T03:25:30.543Z,7.32
2022-09-30T03:30:33.772Z,7.32
2022-09-30T03:35:48.985Z,7.39
2022-09-30T03:41:12.935Z,7.51
2022-09-30T03:46:23.469Z,7.69
2022-09-30T03:51:25.275Z,7.75
2022-09-30T03:56:29.686Z,7.78
2022-09-30T04:01:31.223Z,7.71
2022-09-30T04:06:32.768Z,7.50
2022-09-30T04:11:34.327Z,7.41
2022-09-30T04:16:35.958Z,7.55
2022-09-30T04:21:37.635Z,7.64
2022-09-30T04:26:39.253Z,7.54
2022-09-30T04:31:41.196Z,7.53
2022-09-30T04:36:43.200Z,7.34
2022-09-30T04:41:45.001Z,7.08
2022-09-30T04:46:46.654Z,7.25
2022-09-30T04:51:48.571Z,6.98
2022-09-30T04:56:50.057Z,6.75
2022-09-30T05:01:51.657Z,6.68
2022-09-30T05:06:53.355Z,6.63
2022-09-30T05:11:55.054Z,6.91
2022-09-30T05:16:56.580Z,6.92
2022-09-30T05:21:58.212Z,6.80
2022-09-30T05:26:59.870Z,6.93
2022-09-30T05:32:01.719Z,7.02
2022-09-30T05:37:03.264Z,6.93
2022-09-30T05:42:04.852Z,6.71
2022-09-30T05:47:06.558Z,6.54
2022-09-30T05:52:08.299Z,6.65
2022-09-30T05:57:10.109Z,6.78
2022-09-30T06:02:11.772Z,6.72
2022-09-30T06:07:13.909Z,6.82
2022-09-30T06:12:16.101Z,6.96
2022-09-30T06:17:18.587Z,7.20
2022-09-30T06:22:20.583Z,7.61
2022-09-30T06:27:22.332Z,7.69
2022-09-30T06:32:26.024Z,7.95
2022-09-30T06:37:27.559Z,7.93
2022-09-30T06:42:29.078Z,8.24
2022-09-30T06:47:33.196Z,8.45
2022-09-30T06:52:34.784Z,8.64
2022-09-30T06:57:36.410Z,8.45
2022-09-30T07:02:39.957Z,8.61
2022-09-30T07:07:42.282Z,8.86
2022-09-30T07:12:43.868Z,9.51
2022-09-30T07:17:51.092Z,9.66
2022-09-30T07:22:52.678Z,9.98
2022-09-30T07:27:55.831Z,10.03
2022-09-30T07:32:57.455Z,10.17
2022-09-30T07:38:00.712Z,10.24
2022-09-30T07:43:03.317Z,10.36
2022-09-30T07:48:24.829Z,10.36
2022-09-30T07:53:26.426Z,10.98
2022-09-30T07:58:27.957Z,11.24
2022-09-30T08:03:29.503Z,11.56
2022-09-30T08:08:31.070Z,11.73
2022-09-30T08:13:33.402Z,11.81
2022-09-30T08:18:35.328Z,12.10
2022-09-30T08:23:36.864Z,12.09
2022-09-30T08:28:39.472Z,12.35
2022-09-30T08:33:42.162Z,12.14
2022-09-30T08:38:44.083Z,12.18
2022-09-30T08:44:07.589Z,12.53
2022-09-30T08:49:27.851Z,12.30
2022-09-30T08:54:39.907Z,12.70
2022-09-30T08:59:48.214Z,12.62
2022-09-30T09:04:52.559Z,12.65
2022-09-30T09:09:59.907Z,13.13
2022-09-30T09:15:23.481Z,13.28
2022-09-30T09:20:33.428Z,13.69
2022-09-30T09:25:35.144Z,13.74
2022-09-30T09:30:47.539Z,14.05
2022-09-30T09:36:02.377Z,14.50
2022-09-30T09:41:32.579Z,14.75
2022-09-30T09:47:15.087Z,15.32
2022-09-30T09:52:40.201Z,15.56
2022-09-30T09:57:41.841Z,15.98
2022-09-30T10:02:43.376Z,16.51
2022-09-30T10:07:45.257Z,16.77
2022-09-30T10:12:47.939Z,17.07
2022-09-30T10:17:55.534Z,17.85
2022-09-30T10:23:20.173Z,17.90
2022-09-30T10:28:30.219Z,18.11
2022-09-30T10:33:57.387Z,18.49
2022-09-30T10:39:29.968Z,18.33
2022-09-30T10:44:31.689Z,18.81
2022-09-30T10:49:41.636Z,18.51
2022-09-30T10:54:53.994Z,18.77
2022-09-30T11:00:05.187Z,18.57
2022-09-30T11:05:21.056Z,19.12
2022-09-30T11:10:41.771Z,18.76
2022-09-30T11:16:02.830Z,19.04
2022-09-30T11:21:21.950Z,19.51
2022-09-30T11:26:43.549Z,19.43
2022-09-30T11:32:11.869Z,18.76
2022-09-30T11:37:34.930Z,18.59
2022-09-30T11:42:44.294Z,19.03
2022-09-30T11:48:04.048Z,18.89
2022-09-30T11:53:13.426Z,19.49
2022-09-30T11:58:41.591Z,19.00
2022-09-30T12:03:50.359Z,18.46
2022-09-30T12:08:59.997Z,18.22
2022-09-30T12:14:10.518Z,18.04
2022-09-30T12:19:24.596Z,17.13
2022-09-30T12:24:37.162Z,17.35
2022-09-30T12:30:05.110Z,16.77
2022-09-30T12:35:21.587Z,16.74
2022-09-30T12:40:28.934Z,16.85
2022-09-30T12:45:33.459Z,16.64
2022-09-30T12:50:52.934Z,16.69
2022-09-30T12:56:01.648Z,16.67
2022-09-30T13:01:06.352Z,16.68
2022-09-30T13:06:08.110Z,16.72
2022-09-30T13:11:39.039Z,16.72
2022-09-30T13:17:01.242Z,16.75
2022-09-30T13:22:18.073Z,16.79
2022-09-30T13:27:34.075Z,16.54
2022-09-30T13:32:39.941Z,16.57
2022-09-30T13:37:41.588Z,16.83
2022-09-30T13:42:50.195Z,16.92
2022-09-30T13:48:16.429Z,16.91
2022-09-30T13:53:30.126Z,16.82
2022-09-30T13:59:09.870Z,16.62
2022-09-30T14:04:29.574Z,16.77
2022-09-30T14:10:08.398Z,16.84
2022-09-30T14:15:25.868Z,16.65
2022-09-30T14:20:45.651Z,16.68
2022-09-30T14:26:02.966Z,16.61
2022-09-30T14:31:13.045Z,16.75
2022-09-30T14:36:18.971Z,16.56
2022-09-30T14:41:23.366Z,16.40
2022-09-30T14:46:34.727Z,16.41
2022-09-30T14:51:47.129Z,16.28
2022-09-30T14:56:50.497Z,16.25
2022-09-30T15:01:55.865Z,16.21
2022-09-30T15:07:00.346Z,16.52
2022-09-30T15:12:18.108Z,16.13
2022-09-30T15:17:27.242Z,15.97
2022-09-30T15:22:30.322Z,15.72
2022-09-30T15:27:36.933Z,15.67
2022-09-30T15:32:38.601Z,15.66
2022-09-30T15:37:40.326Z,15.70
2022-09-30T15:42:53.532Z,15.67
2022-09-30T15:48:02.426Z,15.68
2022-09-30T15:53:31.346Z,15.42
2022-09-30T15:58:39.038Z,15.33
2022-09-30T16:03:57.352Z,15.31
2022-09-30T16:09:26.306Z,15.31
2022-09-30T16:14:31.854Z,15.20
2022-09-30T16:19:34.577Z,15.14
2022-09-30T16:24:36.338Z,15.09
2022-09-30T16:29:38.060Z,14.88
2022-09-30T16:34:40.455Z,14.72
2022-09-30T16:39:42.180Z,14.58
2022-09-30T16:44:45.371Z,14.45
2022-09-30T16:49:47.723Z,14.14
2022-09-30T16:54:49.413Z,13.80
2022-09-30T16:59:51.555Z,13.49
2022-09-30T17:04:53.345Z,13.34
2022-09-30T17:09:55.014Z,13.19
2022-09-30T17:14:57.107Z,12.92
2022-09-30T17:19:59.142Z,12.81
2022-09-30T17:25:01.070Z,12.74
2022-09-30T17:30:04.151Z,12.49
2022-09-30T17:35:08.475Z,12.36
2022-09-30T17:40:29.189Z,12.27
2022-09-30T17:45:30.830Z,12.08
2022-09-30T17:50:32.535Z,11.93
2022-09-30T17:55:35.069Z,11.74
2022-09-30T18:00:37.672Z,11.69
2022-09-30T18:05:39.290Z,11.78
2022-09-30T18:10:40.896Z,11.72
2022-09-30T18:15:42.443Z,11.88
2022-09-30T18:20:45.963Z,11.92
2022-09-30T18:25:49.669Z,11.98
2022-09-30T18:30:51.356Z,11.89
2022-09-30T18:35:52.915Z,11.84
2022-09-30T18:40:54.554Z,11.75
2022-09-30T18:45:57.597Z,11.69
2022-09-30T18:51:03.544Z,11.56
2022-09-30T18:56:05.597Z,11.73
2022-09-30T19:01:07.801Z,11.58
2022-09-30T19:06:09.777Z,11.49
2022-09-30T19:11:16.241Z,11.31
2022-09-30T19:16:22.253Z,11.17
2022-09-30T19:21:23.867Z,11.25
2022-09-30T19:26:29.220Z,10.81
2022-09-30T19:31:32.633Z,10.55
2022-09-30T19:36:44.635Z,10.41
2022-09-30T19:41:50.816Z,10.50
2022-09-30T19:46:52.402Z,10.42
2022-09-30T19:51:53.946Z,10.38
2022-09-30T19:56:55.597Z,10.48
2022-09-30T20:01:57.215Z,10.39
2022-09-30T20:06:59.331Z,10.10
2022-09-30T20:12:01.139Z,10.09
2022-09-30T20:17:02.692Z,10.04
2022-09-30T20:22:05.321Z,9.86
2022-09-30T20:27:06.820Z,9.84
2022-09-30T20:32:08.382Z,9.72
2022-09-30T20:37:10.032Z,9.77
2022-09-30T20:42:11.611Z,9.69
2022-09-30T20:47:13.215Z,9.87
2022-09-30T20:52:15.172Z,9.69
2022-09-30T20:57:16.708Z,9.80
2022-09-30T21:02:18.279Z,9.95
2022-09-30T21:07:21.110Z,9.80
2022-09-30T21:12:22.909Z,9.91
2022-09-30T21:17:24.531Z,10.39
2022-09-30T21:22:26.151Z,10.48
2022-09-30T21:27:27.727Z,10.29
2022-09-30T21:32:29.354Z,9.91
2022-09-30T21:37:31.048Z,9.60
2022-09-30T21:42:32.823Z,9.39
2022-09-30T21:47:34.355Z,9.22
2022-09-30T21:52:38.284Z,9.05
2022-09-30T21:57:40.119Z,8.96
2022-09-30T22:02:41.945Z,8.88
2022-09-30T22:07:43.643Z,8.71
2022-09-30T22:12:46.353Z,8.66
2022-09-30T22:17:49.816Z,8.52
2022-09-30T22:22:51.335Z,8.44
2022-09-30T22:27:52.882Z,8.48
2022-09-30T22:33:14.446Z,8.44
2022-09-30T22:38:16.047Z,8.31
2022-09-30T22:43:17.626Z,8.23
2022-09-30T22:48:19.285Z,8.12
2022-09-30T22:53:20.815Z,8.09
2022-09-30T22:58:26.719Z,8.04
2022-09-30T23:03:28.497Z,8.01
2022-09-30T23:08:41.223Z,7.90
2022-09-30T23:13:43.845Z,7.86
2022-09-30T23:18:46.372Z,7.91
2022-09-30T23:23:48.455Z,7.82
2022-09-30T23:28:49.987Z,7.75
2022-09-30T23:33:54.154Z,7.80
2022-09-30T23:39:01.073Z,7.93
2022-09-30T23:44:02.962Z,8.07
2022-09-30T23:49:04.864Z,7.84
2022-09-30T23:54:06.441Z,7.58
2022-09-30T23:59:08.092Z,7.45
